This is the latest recevied weather packets stored in our database for station/object IV3CVE-H1. If no packets are shown the sender has not sent any weather packets the latest 10 day(s).
| Time | Temp. | Humidity | Pressure | Rain* | Wind** | Luminosity | Snow |
|---|---|---|---|---|---|---|---|
| 1777924517 | 15.56° C | 78% | 1014.4 hPa | 0 mm | - | - | - |
| 1777922117 | 16.67° C | 73% | 1014.1 hPa | 0 mm | - | - | - |
| 1777913117 | 22.22° C | 60% | 1013.4 hPa | 0 mm | - | - | - |
| 1777910117 | 22.78° C | 63% | 1013.4 hPa | 0 mm | - | - | - |
| 1777909517 | 22.78° C | 62% | 1013.4 hPa | 0 mm | - | - | - |
| 1777908917 | 23.33° C | 59% | 1013.4 hPa | 0 mm | - | - | - |
| 1777906517 | 23.89° C | 52% | 1013.7 hPa | 0 mm | - | - | - |
| 1777901117 | 24.44° C | 52% | 1014.2 hPa | 0 mm | - | - | - |
| 1777900517 | 25° C | 51% | 1014.3 hPa | 0 mm | - | - | - |
| 1777899317 | 26.11° C | 46% | 1014.3 hPa | 0 mm | - | - | - |
| 1777896316 | 26.11° C | 41% | 1014.5 hPa | 0 mm | - | - | - |
| 1777893917 | 25° C | 39% | 1014.8 hPa | 0 mm | - | - | - |
| 1777893316 | 25° C | 42% | 1014.9 hPa | 0 mm | - | - | - |
| 1777887316 | 23.89° C | 41% | 1015.7 hPa | 0 mm | - | - | - |
| 1777886715 | 23.89° C | 41% | 1015.8 hPa | 0 mm | - | - | - |
| 1777886118 | 23.89° C | 41% | 1015.8 hPa | 0 mm | - | - | - |
| 1777879517 | 19.44° C | 57% | 1015.7 hPa | 0 mm | - | - | - |
| 1777878938 | 18.89° C | 57% | 1015.6 hPa | 0 mm | - | - | - |
| 1777873517 | 15.56° C | 75% | 1015.1 hPa | 0 mm | - | - | - |
| 1777869915 | 10.56° C | 88% | 1014.8 hPa | 0 mm | - | - | - |
| 1777868717 | 10° C | 88% | 1014.7 hPa | 0 mm | - | - | - |
| 1777867517 | 10° C | 88% | 1014.6 hPa | 0 mm | - | - | - |
| 1777865716 | 10° C | 88% | 1014.7 hPa | 0 mm | - | - | - |
| 1777862716 | 10° C | 88% | 1014.8 hPa | 0 mm | - | - | - |
| 1777860916 | 10° C | 86% | 1014.9 hPa | 0 mm | - | - | - |
* Rain latest hour (hover to see other rain measurements)
** Current wind speed in m/s (hover to see current wind gust speed)